Friday, November 17, 2017, 9:10 PM GMT
Back to Local

CWST, La Pocatiere

Location: , , Canada Lat: 47.35
Local Time: 9:10 PM GMT (21:10 GMT) Lon: -70.033
Time Zone: GMT Elev: 101 ft

Show me the last for .
Show Decoded

2017-11-17 20:00 METAR CWST 172000Z AUTO 33009G17KT M01/M08 RMK AO1 PK WND 31017/1930 SLP090
                 T10091081 53011 =
2017-11-17 19:00 METAR CWST 171900Z AUTO 30011G17KT M00/M07 RMK AO1 PK WND 33019/1823 SLP081
                 T10031073 53002 =
2017-11-17 18:00 METAR CWST 171800Z AUTO 32012G19KT M01/M07 RMK AO1 PK WND 33020/1710 SLP078
                 T10071073 50001 =
2017-11-17 17:00 METAR CWST 171700Z AUTO 34013G19KT M01/M07 RMK AO1 PK WND 33019/1659 SLP079
                 T10051069 51006 =
2017-11-17 16:00 METAR CWST 171600Z AUTO 32009G21KT M00/M06 RMK AO1 PK WND 34021/1553 SLP079
                 T10021059 51012 =
2017-11-17 15:00 METAR CWST 171500Z AUTO 33008KT M00/M05 RMK AO1 SLP077 T10021052 51019 =
2017-11-17 14:00 METAR CWST 171400Z AUTO 33007KT M00/M04 RMK AO1 SOG 02 1026 SLP073 T10011039 =
2017-11-17 13:00 METAR CWST 171300Z AUTO 34011G18KT 01/M03 RMK AO1 SOG 03 3027 PK WND 34020/1226
                 SLP067 T00081031 =
2017-11-17 12:00 METAR CWST 171200Z AUTO 33010G16KT 02/M02 RMK AO1 SOG 00 3022 PK WND 33022/1127
                 SLP057 T00211022 =
2017-11-17 11:00 METAR CWST 171100Z AUTO 32004KT 02/01 RMK AO1 SOG 125 3016 SLP046 T00240005 =
2017-11-17 10:00 METAR CWST 171000Z AUTO 36003KT 02/01 RMK AO1 SOG 49 3008 SLP039 T00160010 =
2017-11-17 09:00 METAR CWST 170900Z AUTO 03004KT 02/01 RMK AO1 SOG 01 3002 SLP035 T00160012 =
2017-11-17 08:00 METAR CWST 170800Z AUTO 01003KT 02/01 RMK AO1 SOG 55 6005 SLP030 T00160010 =
2017-11-17 07:00 METAR CWST 170700Z AUTO 02002KT 01/01 RMK AO1 SOG 144 8005 SLP031 T00130007 =
2017-11-17 06:00 METAR CWST 170600Z AUTO 01003KT 02/01 RMK AO1 SLP033 T00160008 57005 =
2017-11-17 05:00 METAR CWST 170500Z AUTO 02003KT 02/01 RMK AO1 SLP035 T00180006 56011 =
2017-11-17 04:00 METAR CWST 170400Z AUTO 16005KT 03/01 RMK AO1 SLP036 T00260011 56020 =
2017-11-17 03:00 METAR CWST 170300Z AUTO 14005KT 03/01 RMK AO1 SLP038 T00270010 58022 =
2017-11-17 02:00 METAR CWST 170200Z AUTO 13004KT 03/01 RMK AO1 SLP046 T00260010 58013 =
2017-11-17 01:00 METAR CWST 170100Z AUTO 15004KT 03/01 RMK AO1 SLP057 T00290010 58004 =
2017-11-17 00:00 METAR CWST 170000Z AUTO 16006KT 03/01 RMK AO1 SLP061 T00300010 55004 =
2017-11-16 23:00 METAR CWST 162300Z AUTO 16003KT 03/01 RMK AO1 SLP060 T00280009 56009 =
2017-11-16 22:00 METAR CWST 162200Z AUTO 15004KT 02/01 RMK AO1 SOG 144 8011 SLP061 T00190008 =

Support USWX by starting your Amazon purchase here.